sensor_id;sensor_type;location;lat;lon;timestamp;P1;durP1;ratioP1;P2;durP2;ratioP2
71042;SDS011;58696;52.134;5.500;2023-06-14T00:02:29;6.65;;;2.72;;
71042;SDS011;58696;52.134;5.500;2023-06-14T00:04:56;5.47;;;2.53;;
71042;SDS011;58696;52.134;5.500;2023-06-14T00:07:33;7.00;;;2.63;;
71042;SDS011;58696;52.134;5.500;2023-06-14T00:10:03;8.60;;;2.40;;
71042;SDS011;58696;52.134;5.500;2023-06-14T00:12:31;3.97;;;2.10;;
71042;SDS011;58696;52.134;5.500;2023-06-14T00:14:57;11.13;;;2.20;;
71042;SDS011;58696;52.134;5.500;2023-06-14T00:17:24;5.13;;;2.90;;
71042;SDS011;58696;52.134;5.500;2023-06-14T00:19:51;7.57;;;2.20;;
71042;SDS011;58696;52.134;5.500;2023-06-14T00:22:21;3.20;;;2.38;;
71042;SDS011;58696;52.134;5.500;2023-06-14T00:24:51;7.15;;;2.25;;
71042;SDS011;58696;52.134;5.500;2023-06-14T00:27:21;14.18;;;2.60;;
71042;SDS011;58696;52.134;5.500;2023-06-14T00:29:51;4.22;;;2.20;;
71042;SDS011;58696;52.134;5.500;2023-06-14T00:32:18;8.23;;;2.00;;
71042;SDS011;58696;52.134;5.500;2023-06-14T00:34:45;6.13;;;2.30;;
71042;SDS011;58696;52.134;5.500;2023-06-14T00:37:13;7.57;;;2.47;;
71042;SDS011;58696;52.134;5.500;2023-06-14T00:39:40;5.07;;;2.70;;
71042;SDS011;58696;52.134;5.500;2023-06-14T00:42:11;4.72;;;2.30;;
71042;SDS011;58696;52.134;5.500;2023-06-14T00:44:52;6.90;;;2.45;;
71042;SDS011;58696;52.134;5.500;2023-06-14T00:47:19;3.67;;;2.38;;
71042;SDS011;58696;52.134;5.500;2023-06-14T00:49:48;10.02;;;3.33;;
71042;SDS011;58696;52.134;5.500;2023-06-14T00:52:19;3.03;;;2.28;;
71042;SDS011;58696;52.134;5.500;2023-06-14T00:54:47;7.78;;;2.53;;
71042;SDS011;58696;52.134;5.500;2023-06-14T00:57:13;8.93;;;2.38;;
71042;SDS011;58696;52.134;5.500;2023-06-14T01:02:11;5.35;;;2.17;;
71042;SDS011;58696;52.134;5.500;2023-06-14T01:04:38;6.18;;;1.75;;
71042;SDS011;58696;52.134;5.500;2023-06-14T01:07:15;14.93;;;2.75;;
71042;SDS011;58696;52.134;5.500;2023-06-14T01:14:55;7.72;;;2.30;;
71042;SDS011;58696;52.134;5.500;2023-06-14T01:17:24;2.58;;;2.22;;
71042;SDS011;58696;52.134;5.500;2023-06-14T01:20:00;8.63;;;2.30;;
71042;SDS011;58696;52.134;5.500;2023-06-14T01:22:28;10.75;;;2.97;;
71042;SDS011;58696;52.134;5.500;2023-06-14T01:24:57;5.80;;;1.90;;
71042;SDS011;58696;52.134;5.500;2023-06-14T01:27:24;7.70;;;2.17;;
71042;SDS011;58696;52.134;5.500;2023-06-14T01:29:58;5.35;;;2.20;;
71042;SDS011;58696;52.134;5.500;2023-06-14T01:32:29;5.50;;;2.33;;
71042;SDS011;58696;52.134;5.500;2023-06-14T01:34:56;4.00;;;2.03;;
71042;SDS011;58696;52.134;5.500;2023-06-14T01:37:25;6.80;;;2.50;;
71042;SDS011;58696;52.134;5.500;2023-06-14T01:39:51;2.75;;;2.15;;
71042;SDS011;58696;52.134;5.500;2023-06-14T01:42:19;5.93;;;2.10;;
71042;SDS011;58696;52.134;5.500;2023-06-14T01:44:49;9.57;;;2.13;;
71042;SDS011;58696;52.134;5.500;2023-06-14T01:47:18;5.97;;;2.42;;
71042;SDS011;58696;52.134;5.500;2023-06-14T01:49:47;6.47;;;2.35;;
71042;SDS011;58696;52.134;5.500;2023-06-14T01:52:17;2.83;;;2.00;;
71042;SDS011;58696;52.134;5.500;2023-06-14T01:54:45;4.53;;;2.33;;
71042;SDS011;58696;52.134;5.500;2023-06-14T01:57:14;4.90;;;2.20;;
71042;SDS011;58696;52.134;5.500;2023-06-14T01:59:43;3.25;;;2.08;;
71042;SDS011;58696;52.134;5.500;2023-06-14T02:02:14;5.50;;;2.20;;
71042;SDS011;58696;52.134;5.500;2023-06-14T02:04:41;6.07;;;2.40;;
71042;SDS011;58696;52.134;5.500;2023-06-14T02:07:12;7.43;;;2.47;;
71042;SDS011;58696;52.134;5.500;2023-06-14T02:09:40;7.28;;;2.50;;
71042;SDS011;58696;52.134;5.500;2023-06-14T02:12:07;5.55;;;2.08;;
71042;SDS011;58696;52.134;5.500;2023-06-14T02:14:36;2.95;;;1.80;;
71042;SDS011;58696;52.134;5.500;2023-06-14T02:17:04;7.45;;;2.55;;
71042;SDS011;58696;52.134;5.500;2023-06-14T02:19:32;7.10;;;2.10;;
71042;SDS011;58696;52.134;5.500;2023-06-14T02:21:59;13.90;;;2.47;;
71042;SDS011;58696;52.134;5.500;2023-06-14T02:24:30;7.13;;;2.15;;
71042;SDS011;58696;52.134;5.500;2023-06-14T02:26:59;9.05;;;2.35;;
71042;SDS011;58696;52.134;5.500;2023-06-14T02:29:31;6.47;;;2.05;;
71042;SDS011;58696;52.134;5.500;2023-06-14T02:31:57;7.00;;;2.53;;
71042;SDS011;58696;52.134;5.500;2023-06-14T02:34:24;5.30;;;2.35;;
71042;SDS011;58696;52.134;5.500;2023-06-14T02:36:55;4.70;;;2.10;;
71042;SDS011;58696;52.134;5.500;2023-06-14T02:39:24;3.38;;;2.63;;
71042;SDS011;58696;52.134;5.500;2023-06-14T02:41:51;13.38;;;2.55;;
71042;SDS011;58696;52.134;5.500;2023-06-14T02:44:24;4.85;;;2.13;;
71042;SDS011;58696;52.134;5.500;2023-06-14T02:46:53;2.65;;;1.90;;
71042;SDS011;58696;52.134;5.500;2023-06-14T02:49:21;6.35;;;2.15;;
71042;SDS011;58696;52.134;5.500;2023-06-14T02:51:48;5.35;;;2.30;;
71042;SDS011;58696;52.134;5.500;2023-06-14T02:54:18;9.52;;;2.47;;
71042;SDS011;58696;52.134;5.500;2023-06-14T02:56:49;8.52;;;2.03;;
71042;SDS011;58696;52.134;5.500;2023-06-14T02:59:16;2.90;;;1.95;;
71042;SDS011;58696;52.134;5.500;2023-06-14T03:01:45;12.40;;;2.40;;
71042;SDS011;58696;52.134;5.500;2023-06-14T03:04:12;7.57;;;2.60;;
71042;SDS011;58696;52.134;5.500;2023-06-14T03:06:43;8.30;;;2.33;;
71042;SDS011;58696;52.134;5.500;2023-06-14T03:09:16;5.05;;;2.38;;
71042;SDS011;58696;52.134;5.500;2023-06-14T03:11:43;6.82;;;2.22;;
71042;SDS011;58696;52.134;5.500;2023-06-14T03:14:09;4.03;;;2.55;;
71042;SDS011;58696;52.134;5.500;2023-06-14T03:16:37;3.58;;;2.05;;
71042;SDS011;58696;52.134;5.500;2023-06-14T03:19:04;9.50;;;2.22;;
71042;SDS011;58696;52.134;5.500;2023-06-14T03:21:31;6.85;;;2.67;;
71042;SDS011;58696;52.134;5.500;2023-06-14T03:24:00;4.65;;;2.25;;
71042;SDS011;58696;52.134;5.500;2023-06-14T03:26:29;5.13;;;2.20;;
71042;SDS011;58696;52.134;5.500;2023-06-14T03:28:59;7.30;;;2.30;;
71042;SDS011;58696;52.134;5.500;2023-06-14T03:31:30;6.53;;;2.40;;
71042;SDS011;58696;52.134;5.500;2023-06-14T03:34:02;7.65;;;2.53;;
71042;SDS011;58696;52.134;5.500;2023-06-14T03:36:28;4.50;;;2.00;;
71042;SDS011;58696;52.134;5.500;2023-06-14T03:38:55;7.72;;;2.17;;
71042;SDS011;58696;52.134;5.500;2023-06-14T03:41:22;6.20;;;2.28;;
71042;SDS011;58696;52.134;5.500;2023-06-14T03:43:48;10.02;;;2.38;;
71042;SDS011;58696;52.134;5.500;2023-06-14T03:46:17;4.28;;;2.40;;
71042;SDS011;58696;52.134;5.500;2023-06-14T03:48:43;4.22;;;2.40;;
71042;SDS011;58696;52.134;5.500;2023-06-14T03:51:11;7.00;;;2.42;;
71042;SDS011;58696;52.134;5.500;2023-06-14T03:53:40;10.75;;;2.55;;
71042;SDS011;58696;52.134;5.500;2023-06-14T03:56:27;8.67;;;2.43;;
71042;SDS011;58696;52.134;5.500;2023-06-14T03:58:56;4.28;;;2.10;;
71042;SDS011;58696;52.134;5.500;2023-06-14T04:01:24;5.80;;;2.10;;
71042;SDS011;58696;52.134;5.500;2023-06-14T04:03:58;8.15;;;2.20;;
71042;SDS011;58696;52.134;5.500;2023-06-14T04:06:25;11.52;;;2.70;;
71042;SDS011;58696;52.134;5.500;2023-06-14T04:09:01;4.22;;;2.17;;
71042;SDS011;58696;52.134;5.500;2023-06-14T04:11:30;6.65;;;2.58;;
71042;SDS011;58696;52.134;5.500;2023-06-14T04:14:01;6.47;;;2.50;;
71042;SDS011;58696;52.134;5.500;2023-06-14T04:16:28;4.53;;;2.55;;
71042;SDS011;58696;52.134;5.500;2023-06-14T04:18:55;8.77;;;3.00;;
71042;SDS011;58696;52.134;5.500;2023-06-14T04:21:24;21.73;;;2.72;;
71042;SDS011;58696;52.134;5.500;2023-06-14T04:23:56;6.22;;;2.20;;
71042;SDS011;58696;52.134;5.500;2023-06-14T04:26:23;6.95;;;2.60;;
71042;SDS011;58696;52.134;5.500;2023-06-14T04:28:52;7.15;;;2.28;;
71042;SDS011;58696;52.134;5.500;2023-06-14T04:31:23;6.97;;;2.15;;
71042;SDS011;58696;52.134;5.500;2023-06-14T04:33:58;10.52;;;2.35;;
71042;SDS011;58696;52.134;5.500;2023-06-14T04:36:26;11.80;;;2.50;;
71042;SDS011;58696;52.134;5.500;2023-06-14T04:38:54;10.35;;;2.35;;
71042;SDS011;58696;52.134;5.500;2023-06-14T04:41:23;4.97;;;2.20;;
71042;SDS011;58696;52.134;5.500;2023-06-14T04:43:59;5.15;;;2.42;;
71042;SDS011;58696;52.134;5.500;2023-06-14T04:46:30;6.20;;;2.42;;
71042;SDS011;58696;52.134;5.500;2023-06-14T04:48:58;3.90;;;2.13;;
71042;SDS011;58696;52.134;5.500;2023-06-14T04:51:28;9.20;;;2.72;;
71042;SDS011;58696;52.134;5.500;2023-06-14T04:53:57;4.32;;;2.40;;
71042;SDS011;58696;52.134;5.500;2023-06-14T04:56:27;5.50;;;2.40;;
71042;SDS011;58696;52.134;5.500;2023-06-14T04:58:55;6.57;;;2.20;;
71042;SDS011;58696;52.134;5.500;2023-06-14T05:01:25;5.97;;;2.05;;
71042;SDS011;58696;52.134;5.500;2023-06-14T05:03:54;2.50;;;2.30;;
71042;SDS011;58696;52.134;5.500;2023-06-14T05:06:20;7.20;;;2.33;;
71042;SDS011;58696;52.134;5.500;2023-06-14T05:08:47;6.15;;;2.13;;
71042;SDS011;58696;52.134;5.500;2023-06-14T05:11:17;4.50;;;2.20;;
71042;SDS011;58696;52.134;5.500;2023-06-14T05:13:46;9.65;;;2.50;;
71042;SDS011;58696;52.134;5.500;2023-06-14T05:16:15;5.63;;;2.20;;
71042;SDS011;58696;52.134;5.500;2023-06-14T05:18:45;3.78;;;1.92;;
71042;SDS011;58696;52.134;5.500;2023-06-14T05:21:13;5.45;;;2.30;;
71042;SDS011;58696;52.134;5.500;2023-06-14T05:23:44;4.68;;;2.80;;
71042;SDS011;58696;52.134;5.500;2023-06-14T05:26:11;4.47;;;2.47;;
71042;SDS011;58696;52.134;5.500;2023-06-14T05:28:41;3.78;;;2.20;;
71042;SDS011;58696;52.134;5.500;2023-06-14T05:31:07;2.60;;;2.37;;
71042;SDS011;58696;52.134;5.500;2023-06-14T05:33:36;3.25;;;2.10;;
71042;SDS011;58696;52.134;5.500;2023-06-14T05:36:02;12.10;;;2.33;;
71042;SDS011;58696;52.134;5.500;2023-06-14T05:38:31;5.95;;;2.50;;
71042;SDS011;58696;52.134;5.500;2023-06-14T05:41:03;9.43;;;2.38;;
71042;SDS011;58696;52.134;5.500;2023-06-14T05:43:32;3.78;;;2.08;;
71042;SDS011;58696;52.134;5.500;2023-06-14T05:45:58;10.60;;;2.53;;
71042;SDS011;58696;52.134;5.500;2023-06-14T05:48:25;7.38;;;2.38;;
71042;SDS011;58696;52.134;5.500;2023-06-14T05:53:19;4.22;;;2.47;;
71042;SDS011;58696;52.134;5.500;2023-06-14T05:55:45;5.45;;;2.30;;
71042;SDS011;58696;52.134;5.500;2023-06-14T05:58:14;19.10;;;3.35;;
71042;SDS011;58696;52.134;5.500;2023-06-14T06:00:43;13.23;;;2.40;;
71042;SDS011;58696;52.134;5.500;2023-06-14T06:03:12;3.88;;;2.22;;
71042;SDS011;58696;52.134;5.500;2023-06-14T06:05:39;7.53;;;2.20;;
71042;SDS011;58696;52.134;5.500;2023-06-14T06:08:08;6.20;;;2.33;;
71042;SDS011;58696;52.134;5.500;2023-06-14T06:10:35;11.70;;;2.25;;
71042;SDS011;58696;52.134;5.500;2023-06-14T06:13:04;10.48;;;3.03;;
71042;SDS011;58696;52.134;5.500;2023-06-14T06:15:35;7.88;;;2.20;;
71042;SDS011;58696;52.134;5.500;2023-06-14T06:18:02;9.02;;;2.80;;
71042;SDS011;58696;52.134;5.500;2023-06-14T06:20:29;21.20;;;2.63;;
71042;SDS011;58696;52.134;5.500;2023-06-14T06:22:58;10.57;;;2.25;;
71042;SDS011;58696;52.134;5.500;2023-06-14T06:25:27;6.40;;;2.70;;
71042;SDS011;58696;52.134;5.500;2023-06-14T06:27:55;13.70;;;2.70;;
71042;SDS011;58696;52.134;5.500;2023-06-14T06:30:24;8.27;;;2.40;;
71042;SDS011;58696;52.134;5.500;2023-06-14T06:32:53;13.20;;;2.65;;
71042;SDS011;58696;52.134;5.500;2023-06-14T06:35:22;4.22;;;2.22;;
71042;SDS011;58696;52.134;5.500;2023-06-14T06:37:49;7.55;;;2.40;;
71042;SDS011;58696;52.134;5.500;2023-06-14T06:40:19;3.33;;;2.13;;
71042;SDS011;58696;52.134;5.500;2023-06-14T06:42:48;5.82;;;2.80;;
71042;SDS011;58696;52.134;5.500;2023-06-14T06:45:18;3.50;;;2.28;;
71042;SDS011;58696;52.134;5.500;2023-06-14T06:47:50;7.90;;;2.50;;
71042;SDS011;58696;52.134;5.500;2023-06-14T06:50:18;4.50;;;2.25;;
71042;SDS011;58696;52.134;5.500;2023-06-14T06:52:46;7.00;;;2.45;;
71042;SDS011;58696;52.134;5.500;2023-06-14T06:55:12;6.55;;;2.45;;
71042;SDS011;58696;52.134;5.500;2023-06-14T06:57:42;4.10;;;2.25;;
71042;SDS011;58696;52.134;5.500;2023-06-14T07:00:08;4.00;;;2.30;;
71042;SDS011;58696;52.134;5.500;2023-06-14T07:02:39;9.82;;;2.63;;
71042;SDS011;58696;52.134;5.500;2023-06-14T07:05:06;9.15;;;2.67;;
71042;SDS011;58696;52.134;5.500;2023-06-14T07:07:34;3.45;;;1.88;;
71042;SDS011;58696;52.134;5.500;2023-06-14T07:10:03;8.85;;;2.35;;
71042;SDS011;58696;52.134;5.500;2023-06-14T07:12:31;4.18;;;2.30;;
71042;SDS011;58696;52.134;5.500;2023-06-14T07:15:02;6.45;;;2.08;;
71042;SDS011;58696;52.134;5.500;2023-06-14T07:17:29;8.45;;;2.20;;
71042;SDS011;58696;52.134;5.500;2023-06-14T07:19:56;3.47;;;2.03;;
71042;SDS011;58696;52.134;5.500;2023-06-14T07:22:22;8.23;;;2.80;;
71042;SDS011;58696;52.134;5.500;2023-06-14T07:24:51;7.53;;;2.10;;
71042;SDS011;58696;52.134;5.500;2023-06-14T07:27:21;6.78;;;2.00;;
71042;SDS011;58696;52.134;5.500;2023-06-14T07:29:48;4.13;;;2.13;;
71042;SDS011;58696;52.134;5.500;2023-06-14T07:32:14;9.27;;;1.88;;
71042;SDS011;58696;52.134;5.500;2023-06-14T07:34:41;4.10;;;1.52;;
71042;SDS011;58696;52.134;5.500;2023-06-14T07:37:07;12.60;;;1.95;;
71042;SDS011;58696;52.134;5.500;2023-06-14T07:39:37;11.43;;;1.90;;
71042;SDS011;58696;52.134;5.500;2023-06-14T07:42:03;3.72;;;1.75;;
71042;SDS011;58696;52.134;5.500;2023-06-14T07:44:34;2.85;;;1.70;;
71042;SDS011;58696;52.134;5.500;2023-06-14T07:47:03;3.80;;;1.90;;
71042;SDS011;58696;52.134;5.500;2023-06-14T07:51:57;1.58;;;1.48;;
71042;SDS011;58696;52.134;5.500;2023-06-14T07:54:26;2.55;;;1.60;;
71042;SDS011;58696;52.134;5.500;2023-06-14T07:56:53;4.55;;;1.80;;
71042;SDS011;58696;52.134;5.500;2023-06-14T07:59:20;10.35;;;1.80;;
71042;SDS011;58696;52.134;5.500;2023-06-14T08:01:52;5.38;;;1.77;;
71042;SDS011;58696;52.134;5.500;2023-06-14T08:04:21;2.33;;;1.60;;
71042;SDS011;58696;52.134;5.500;2023-06-14T08:06:48;14.68;;;1.67;;
71042;SDS011;58696;52.134;5.500;2023-06-14T08:11:47;6.05;;;1.52;;
71042;SDS011;58696;52.134;5.500;2023-06-14T08:14:13;2.42;;;1.45;;
71042;SDS011;58696;52.134;5.500;2023-06-14T08:16:40;6.35;;;1.35;;
71042;SDS011;58696;52.134;5.500;2023-06-14T08:19:09;1.52;;;1.40;;
71042;SDS011;58696;52.134;5.500;2023-06-14T08:21:36;2.33;;;1.13;;
71042;SDS011;58696;52.134;5.500;2023-06-14T08:24:03;4.88;;;1.35;;
71042;SDS011;58696;52.134;5.500;2023-06-14T08:26:32;8.60;;;1.60;;
71042;SDS011;58696;52.134;5.500;2023-06-14T08:28:59;2.85;;;1.58;;
71042;SDS011;58696;52.134;5.500;2023-06-14T08:31:25;1.73;;;1.27;;
71042;SDS011;58696;52.134;5.500;2023-06-14T08:33:56;8.52;;;1.48;;
71042;SDS011;58696;52.134;5.500;2023-06-14T08:36:25;1.75;;;1.40;;
71042;SDS011;58696;52.134;5.500;2023-06-14T08:38:52;5.75;;;1.60;;
71042;SDS011;58696;52.134;5.500;2023-06-14T08:41:22;3.95;;;1.50;;
71042;SDS011;58696;52.134;5.500;2023-06-14T08:43:54;2.63;;;1.50;;
71042;SDS011;58696;52.134;5.500;2023-06-14T08:46:25;6.85;;;1.60;;
71042;SDS011;58696;52.134;5.500;2023-06-14T08:48:59;3.10;;;1.30;;
71042;SDS011;58696;52.134;5.500;2023-06-14T08:51:25;2.33;;;1.15;;
71042;SDS011;58696;52.134;5.500;2023-06-14T08:54:00;3.95;;;1.52;;
71042;SDS011;58696;52.134;5.500;2023-06-14T08:56:30;4.60;;;1.65;;
71042;SDS011;58696;52.134;5.500;2023-06-14T08:58:58;4.00;;;1.33;;
71042;SDS011;58696;52.134;5.500;2023-06-14T09:01:33;1.92;;;1.50;;
71042;SDS011;58696;52.134;5.500;2023-06-14T09:04:00;1.48;;;1.30;;
71042;SDS011;58696;52.134;5.500;2023-06-14T09:06:30;1.50;;;1.40;;
71042;SDS011;58696;52.134;5.500;2023-06-14T09:08:57;3.17;;;1.45;;
71042;SDS011;58696;52.134;5.500;2023-06-14T09:11:27;2.33;;;1.50;;
71042;SDS011;58696;52.134;5.500;2023-06-14T09:13:53;7.05;;;1.70;;
71042;SDS011;58696;52.134;5.500;2023-06-14T09:16:25;3.15;;;1.50;;
71042;SDS011;58696;52.134;5.500;2023-06-14T09:18:51;1.60;;;1.50;;
71042;SDS011;58696;52.134;5.500;2023-06-14T09:21:19;10.27;;;1.70;;
71042;SDS011;58696;52.134;5.500;2023-06-14T09:23:51;1.88;;;1.58;;
71042;SDS011;58696;52.134;5.500;2023-06-14T09:26:18;1.63;;;1.20;;
71042;SDS011;58696;52.134;5.500;2023-06-14T09:28:50;4.97;;;1.25;;
71042;SDS011;58696;52.134;5.500;2023-06-14T09:31:21;2.55;;;1.30;;
71042;SDS011;58696;52.134;5.500;2023-06-14T09:33:51;1.38;;;1.15;;
71042;SDS011;58696;52.134;5.500;2023-06-14T09:36:23;3.67;;;1.38;;
71042;SDS011;58696;52.134;5.500;2023-06-14T09:38:55;3.08;;;1.38;;
71042;SDS011;58696;52.134;5.500;2023-06-14T09:41:33;1.88;;;1.70;;
71042;SDS011;58696;52.134;5.500;2023-06-14T09:44:00;6.57;;;1.40;;
71042;SDS011;58696;52.134;5.500;2023-06-14T09:46:35;1.27;;;1.15;;
71042;SDS011;58696;52.134;5.500;2023-06-14T09:49:03;1.83;;;1.42;;
71042;SDS011;58696;52.134;5.500;2023-06-14T09:51:31;5.05;;;1.60;;
71042;SDS011;58696;52.134;5.500;2023-06-14T09:54:02;1.50;;;1.40;;
71042;SDS011;58696;52.134;5.500;2023-06-14T09:56:32;4.65;;;1.42;;
71042;SDS011;58696;52.134;5.500;2023-06-14T09:59:13;2.28;;;1.75;;
71042;SDS011;58696;52.134;5.500;2023-06-14T10:01:46;3.55;;;1.80;;
71042;SDS011;58696;52.134;5.500;2023-06-14T10:04:14;3.33;;;1.58;;
71042;SDS011;58696;52.134;5.500;2023-06-14T10:06:48;3.97;;;1.27;;
71042;SDS011;58696;52.134;5.500;2023-06-14T10:09:19;1.40;;;1.27;;
71042;SDS011;58696;52.134;5.500;2023-06-14T10:11:47;2.03;;;1.50;;
71042;SDS011;58696;52.134;5.500;2023-06-14T10:14:15;2.67;;;1.30;;
71042;SDS011;58696;52.134;5.500;2023-06-14T10:16:52;13.27;;;1.63;;
71042;SDS011;58696;52.134;5.500;2023-06-14T10:19:29;4.10;;;1.10;;
71042;SDS011;58696;52.134;5.500;2023-06-14T10:22:11;4.15;;;1.55;;
71042;SDS011;58696;52.134;5.500;2023-06-14T10:24:45;4.50;;;1.85;;
71042;SDS011;58696;52.134;5.500;2023-06-14T10:27:16;4.13;;;1.50;;
71042;SDS011;58696;52.134;5.500;2023-06-14T10:32:23;1.40;;;1.30;;
71042;SDS011;58696;52.134;5.500;2023-06-14T10:37:25;6.78;;;1.88;;
71042;SDS011;58696;52.134;5.500;2023-06-14T10:39:52;1.30;;;1.20;;
71042;SDS011;58696;52.134;5.500;2023-06-14T10:42:23;2.92;;;1.38;;
71042;SDS011;58696;52.134;5.500;2023-06-14T10:44:58;7.15;;;1.48;;
71042;SDS011;58696;52.134;5.500;2023-06-14T10:52:28;2.47;;;1.25;;
71042;SDS011;58696;52.134;5.500;2023-06-14T10:55:11;3.80;;;1.30;;
71042;SDS011;58696;52.134;5.500;2023-06-14T11:00:19;1.77;;;1.20;;
71042;SDS011;58696;52.134;5.500;2023-06-14T11:05:54;1.40;;;1.25;;
71042;SDS011;58696;52.134;5.500;2023-06-14T11:08:27;7.63;;;1.50;;
71042;SDS011;58696;52.134;5.500;2023-06-14T11:11:02;5.57;;;1.48;;
71042;SDS011;58696;52.134;5.500;2023-06-14T11:13:38;2.78;;;1.42;;
71042;SDS011;58696;52.134;5.500;2023-06-14T11:16:12;4.57;;;1.15;;
71042;SDS011;58696;52.134;5.500;2023-06-14T11:18:40;2.00;;;1.40;;
71042;SDS011;58696;52.134;5.500;2023-06-14T11:21:11;5.78;;;1.65;;
71042;SDS011;58696;52.134;5.500;2023-06-14T11:23:37;4.38;;;1.85;;
71042;SDS011;58696;52.134;5.500;2023-06-14T11:26:04;1.30;;;1.20;;
71042;SDS011;58696;52.134;5.500;2023-06-14T11:28:37;4.63;;;1.90;;
71042;SDS011;58696;52.134;5.500;2023-06-14T11:31:05;2.42;;;1.40;;
71042;SDS011;58696;52.134;5.500;2023-06-14T11:33:35;4.32;;;1.50;;
71042;SDS011;58696;52.134;5.500;2023-06-14T11:36:02;4.93;;;1.55;;
71042;SDS011;58696;52.134;5.500;2023-06-14T11:38:35;1.65;;;1.33;;
71042;SDS011;58696;52.134;5.500;2023-06-14T11:41:03;10.48;;;1.60;;
71042;SDS011;58696;52.134;5.500;2023-06-14T11:43:30;2.50;;;1.40;;
71042;SDS011;58696;52.134;5.500;2023-06-14T11:46:01;2.42;;;1.67;;
71042;SDS011;58696;52.134;5.500;2023-06-14T11:48:41;1.77;;;1.27;;
71042;SDS011;58696;52.134;5.500;2023-06-14T11:51:08;8.23;;;1.98;;
71042;SDS011;58696;52.134;5.500;2023-06-14T11:53:38;2.53;;;1.52;;
71042;SDS011;58696;52.134;5.500;2023-06-14T11:56:05;6.22;;;1.30;;
71042;SDS011;58696;52.134;5.500;2023-06-14T11:58:34;1.73;;;1.50;;
71042;SDS011;58696;52.134;5.500;2023-06-14T12:01:02;6.72;;;1.30;;
71042;SDS011;58696;52.134;5.500;2023-06-14T12:03:29;2.97;;;1.30;;
71042;SDS011;58696;52.134;5.500;2023-06-14T12:06:06;3.33;;;1.50;;
71042;SDS011;58696;52.134;5.500;2023-06-14T12:08:36;6.53;;;1.05;;
71042;SDS011;58696;52.134;5.500;2023-06-14T12:11:10;4.50;;;1.30;;
71042;SDS011;58696;52.134;5.500;2023-06-14T12:13:40;5.32;;;1.27;;
71042;SDS011;58696;52.134;5.500;2023-06-14T12:16:08;2.45;;;1.42;;
71042;SDS011;58696;52.134;5.500;2023-06-14T12:18:39;1.73;;;1.50;;
71042;SDS011;58696;52.134;5.500;2023-06-14T12:21:09;4.60;;;1.52;;
71042;SDS011;58696;52.134;5.500;2023-06-14T12:23:42;5.35;;;1.50;;
71042;SDS011;58696;52.134;5.500;2023-06-14T12:26:15;3.22;;;1.50;;
71042;SDS011;58696;52.134;5.500;2023-06-14T12:28:43;4.50;;;1.23;;
71042;SDS011;58696;52.134;5.500;2023-06-14T12:31:11;7.13;;;1.65;;
71042;SDS011;58696;52.134;5.500;2023-06-14T12:33:41;2.28;;;1.45;;
71042;SDS011;58696;52.134;5.500;2023-06-14T12:36:09;8.82;;;1.52;;
71042;SDS011;58696;52.134;5.500;2023-06-14T12:38:36;3.28;;;1.42;;
71042;SDS011;58696;52.134;5.500;2023-06-14T12:41:06;5.43;;;2.38;;
71042;SDS011;58696;52.134;5.500;2023-06-14T12:43:34;3.60;;;1.70;;
71042;SDS011;58696;52.134;5.500;2023-06-14T12:46:00;3.13;;;1.40;;
71042;SDS011;58696;52.134;5.500;2023-06-14T12:48:27;3.72;;;1.30;;
71042;SDS011;58696;52.134;5.500;2023-06-14T12:50:55;2.88;;;1.45;;
71042;SDS011;58696;52.134;5.500;2023-06-14T12:53:22;3.35;;;1.25;;
71042;SDS011;58696;52.134;5.500;2023-06-14T12:55:49;3.78;;;1.25;;
71042;SDS011;58696;52.134;5.500;2023-06-14T12:58:16;4.25;;;1.48;;
71042;SDS011;58696;52.134;5.500;2023-06-14T13:00:46;6.63;;;1.40;;
71042;SDS011;58696;52.134;5.500;2023-06-14T13:03:17;1.88;;;1.30;;
71042;SDS011;58696;52.134;5.500;2023-06-14T13:05:45;1.67;;;1.20;;
71042;SDS011;58696;52.134;5.500;2023-06-14T13:08:11;7.97;;;1.40;;
71042;SDS011;58696;52.134;5.500;2023-06-14T13:10:40;5.13;;;1.15;;
71042;SDS011;58696;52.134;5.500;2023-06-14T13:13:08;1.92;;;1.50;;
71042;SDS011;58696;52.134;5.500;2023-06-14T13:15:35;2.63;;;1.30;;
71042;SDS011;58696;52.134;5.500;2023-06-14T13:18:02;1.60;;;1.30;;
71042;SDS011;58696;52.134;5.500;2023-06-14T13:20:30;7.40;;;1.60;;
71042;SDS011;58696;52.134;5.500;2023-06-14T13:22:59;4.53;;;1.35;;
71042;SDS011;58696;52.134;5.500;2023-06-14T13:25:32;3.42;;;1.70;;
71042;SDS011;58696;52.134;5.500;2023-06-14T13:28:03;3.60;;;1.35;;
71042;SDS011;58696;52.134;5.500;2023-06-14T13:30:31;2.03;;;1.50;;
71042;SDS011;58696;52.134;5.500;2023-06-14T13:33:01;2.40;;;1.33;;
71042;SDS011;58696;52.134;5.500;2023-06-14T13:35:28;8.38;;;1.20;;
71042;SDS011;58696;52.134;5.500;2023-06-14T13:37:57;4.38;;;2.50;;
71042;SDS011;58696;52.134;5.500;2023-06-14T13:40:24;2.50;;;1.60;;
71042;SDS011;58696;52.134;5.500;2023-06-14T13:42:56;3.88;;;1.40;;
71042;SDS011;58696;52.134;5.500;2023-06-14T13:45:22;4.80;;;1.33;;
71042;SDS011;58696;52.134;5.500;2023-06-14T13:47:53;3.00;;;1.42;;
71042;SDS011;58696;52.134;5.500;2023-06-14T13:50:21;2.28;;;1.20;;
71042;SDS011;58696;52.134;5.500;2023-06-14T13:52:47;5.57;;;1.42;;
71042;SDS011;58696;52.134;5.500;2023-06-14T13:55:16;2.55;;;1.27;;
71042;SDS011;58696;52.134;5.500;2023-06-14T13:57:45;1.90;;;1.30;;
71042;SDS011;58696;52.134;5.500;2023-06-14T14:00:12;2.38;;;1.35;;
71042;SDS011;58696;52.134;5.500;2023-06-14T14:02:40;8.50;;;1.30;;
71042;SDS011;58696;52.134;5.500;2023-06-14T14:05:06;1.23;;;1.00;;
71042;SDS011;58696;52.134;5.500;2023-06-14T14:07:35;6.38;;;1.27;;
71042;SDS011;58696;52.134;5.500;2023-06-14T14:10:02;1.77;;;1.17;;
71042;SDS011;58696;52.134;5.500;2023-06-14T14:12:29;1.40;;;1.27;;
71042;SDS011;58696;52.134;5.500;2023-06-14T14:14:56;3.97;;;1.17;;
71042;SDS011;58696;52.134;5.500;2023-06-14T14:17:27;4.57;;;1.38;;
71042;SDS011;58696;52.134;5.500;2023-06-14T14:19:59;6.18;;;1.50;;
71042;SDS011;58696;52.134;5.500;2023-06-14T14:22:28;3.67;;;1.80;;
71042;SDS011;58696;52.134;5.500;2023-06-14T14:24:57;3.45;;;1.35;;
71042;SDS011;58696;52.134;5.500;2023-06-14T14:27:24;2.97;;;1.40;;
71042;SDS011;58696;52.134;5.500;2023-06-14T14:29:50;1.98;;;1.00;;
71042;SDS011;58696;52.134;5.500;2023-06-14T14:32:17;1.88;;;1.42;;
71042;SDS011;58696;52.134;5.500;2023-06-14T14:34:46;2.25;;;1.30;;
71042;SDS011;58696;52.134;5.500;2023-06-14T14:37:12;3.17;;;1.20;;
71042;SDS011;58696;52.134;5.500;2023-06-14T14:39:41;3.30;;;1.15;;
71042;SDS011;58696;52.134;5.500;2023-06-14T14:42:12;1.30;;;1.20;;
71042;SDS011;58696;52.134;5.500;2023-06-14T14:44:41;1.52;;;1.20;;
71042;SDS011;58696;52.134;5.500;2023-06-14T14:47:08;7.20;;;1.25;;
71042;SDS011;58696;52.134;5.500;2023-06-14T14:49:35;11.23;;;1.17;;
71042;SDS011;58696;52.134;5.500;2023-06-14T14:52:04;2.40;;;1.33;;
71042;SDS011;58696;52.134;5.500;2023-06-14T14:54:49;2.85;;;1.10;;
71042;SDS011;58696;52.134;5.500;2023-06-14T14:59:42;4.90;;;2.00;;
71042;SDS011;58696;52.134;5.500;2023-06-14T15:02:09;2.70;;;1.10;;
71042;SDS011;58696;52.134;5.500;2023-06-14T15:04:38;4.55;;;1.40;;
71042;SDS011;58696;52.134;5.500;2023-06-14T15:07:05;8.38;;;1.20;;
71042;SDS011;58696;52.134;5.500;2023-06-14T15:09:35;5.50;;;1.20;;
71042;SDS011;58696;52.134;5.500;2023-06-14T15:12:01;2.90;;;1.10;;
71042;SDS011;58696;52.134;5.500;2023-06-14T15:14:33;1.38;;;1.15;;
71042;SDS011;58696;52.134;5.500;2023-06-14T15:17:00;3.50;;;1.17;;
71042;SDS011;58696;52.134;5.500;2023-06-14T15:19:28;1.45;;;1.02;;
71042;SDS011;58696;52.134;5.500;2023-06-14T15:21:57;2.22;;;1.20;;
71042;SDS011;58696;52.134;5.500;2023-06-14T15:24:25;2.15;;;1.35;;
71042;SDS011;58696;52.134;5.500;2023-06-14T15:27:07;5.80;;;2.10;;
71042;SDS011;58696;52.134;5.500;2023-06-14T15:29:36;2.30;;;1.30;;
71042;SDS011;58696;52.134;5.500;2023-06-14T15:32:10;3.47;;;1.23;;